Time;durP1;ratioP1;P1;durP2;ratioP2;P2;SDS_P1;SDS_P2;PMS_P1;PMS_P2;Temp;Humidity;BMP_temperature;BMP_pressure;BME280_temperature;BME280_humidity;BME280_pressure;Samples;Min_cycle;Max_cycle;Signal;HPM_P1;HPM_P2
2022/07/09 00:00:36;;;;;;;18.15;7.07;;;15.70;99.90;;;;;;5098717;28;20024;-59
2022/07/09 00:03:02;;;;;;;13.00;6.28;;;15.70;99.90;;;;;;5099832;28;20046;-58
2022/07/09 00:05:28;;;;;;;19.70;7.00;;;15.60;99.90;;;;;;5100331;28;20016;-57
2022/07/09 00:07:53;;;;;;;15.32;6.72;;;15.60;99.90;;;;;;5098522;28;20488;-58
2022/07/09 00:10:19;;;;;;;20.67;6.90;;;15.60;99.90;;;;;;5100307;28;20473;-57
2022/07/09 00:12:45;;;;;;;12.45;6.15;;;15.60;99.90;;;;;;5097617;28;20080;-57
2022/07/09 00:15:11;;;;;;;13.88;6.47;;;15.60;99.90;;;;;;5099907;28;20024;-58
2022/07/09 00:17:37;;;;;;;11.90;6.90;;;15.60;99.90;;;;;;5099022;28;20036;-57
2022/07/09 00:20:04;;;;;;;13.15;4.30;;;15.60;99.90;;;;;;5099298;28;20016;-58
2022/07/09 00:22:31;;;;;;;7.30;4.35;;;15.40;99.90;;;;;;5100747;28;20020;-57
2022/07/09 00:24:58;;;;;;;16.92;4.90;;;15.30;99.90;;;;;;5097842;28;20031;-57
2022/07/09 00:27:24;;;;;;;;;;;15.30;99.90;;;;;;5099430;28;20410;-57
2022/07/09 00:29:50;;;;;;;9.57;3.88;;;15.30;99.90;;;;;;5100527;28;19907;-57
2022/07/09 00:32:16;;;;;;;9.15;3.75;;;15.30;99.90;;;;;;5098848;28;20039;-57
2022/07/09 00:34:41;;;;;;;16.73;3.80;;;15.30;99.90;;;;;;5106927;28;20080;-58
2022/07/09 00:37:07;;;;;;;11.18;4.35;;;15.30;99.90;;;;;;5109811;28;20059;-59
2022/07/09 00:39:33;;;;;;;15.75;3.83;;;15.20;99.90;;;;;;5110215;28;20482;-58
2022/07/09 00:42:17;;;;;;;9.82;3.90;;;15.10;99.90;;;;;;5110216;28;20470;-58
2022/07/09 00:44:42;;;;;;;12.27;3.88;;;15.10;99.90;;;;;;5109916;28;20052;-57
2022/07/09 00:47:08;;;;;;;10.02;4.15;;;15.10;99.90;;;;;;5108312;28;20433;-57
2022/07/09 00:49:42;;;;;;;17.27;5.32;;;15.00;99.90;;;;;;5109749;28;20024;-58
2022/07/09 00:52:11;;;;;;;17.35;4.97;;;15.00;99.90;;;;;;5090473;28;20542;-59
2022/07/09 00:54:39;;;;;;;13.38;5.45;;;14.90;99.90;;;;;;5108270;28;20024;-56
2022/07/09 00:57:07;;;;;;;12.05;4.45;;;14.90;99.90;;;;;;5109705;28;20024;-58
2022/07/09 00:59:34;;;;;;;13.20;5.10;;;14.80;99.90;;;;;;5112211;28;20548;-57
2022/07/09 01:02:00;;;;;;;22.20;5.57;;;14.90;99.90;;;;;;5113942;28;20027;-57
2022/07/09 01:04:26;;;;;;;11.35;4.50;;;14.90;99.90;;;;;;5113864;28;20031;-57
2022/07/09 01:06:52;;;;;;;11.48;4.72;;;14.90;99.90;;;;;;5113866;28;20130;-57
2022/07/09 01:09:18;;;;;;;12.73;4.75;;;14.80;99.90;;;;;;5113924;28;20375;-57
2022/07/09 01:11:43;;;;;;;13.57;5.30;;;14.80;99.90;;;;;;5113671;28;20066;-57
2022/07/09 01:14:09;;;;;;;12.23;4.85;;;14.80;99.90;;;;;;5114128;28;20019;-57
2022/07/09 01:16:37;;;;;;;19.70;5.72;;;14.70;99.90;;;;;;5113933;28;20054;-58
2022/07/09 01:19:03;;;;;;;16.88;5.55;;;14.70;99.90;;;;;;5113328;28;20028;-57
2022/07/09 01:21:29;;;;;;;16.70;5.13;;;14.70;99.90;;;;;;5112142;28;20027;-56
2022/07/09 01:23:56;;;;;;;11.98;5.28;;;14.70;99.90;;;;;;5112149;28;20119;-56
2022/07/09 01:26:23;;;;;;;11.20;4.90;;;14.60;99.90;;;;;;5113314;28;20016;-56
2022/07/09 01:28:49;;;;;;;12.93;5.05;;;14.60;99.90;;;;;;5113339;28;20490;-57
2022/07/09 01:31:15;;;;;;;17.70;5.90;;;14.60;99.90;;;;;;5111798;28;20050;-57
2022/07/09 01:33:41;;;;;;;16.20;5.18;;;14.50;99.90;;;;;;5113297;28;20494;-56
2022/07/09 01:36:10;;;;;;;15.68;5.28;;;14.60;99.90;;;;;;5113214;28;20032;-57
2022/07/09 01:38:36;;;;;;;12.40;5.00;;;14.60;99.90;;;;;;5112626;28;20101;-56
2022/07/09 01:41:02;;;;;;;10.93;4.50;;;14.50;99.90;;;;;;5113382;28;20024;-57
2022/07/09 01:43:28;;;;;;;12.88;4.82;;;14.50;99.90;;;;;;5113488;28;20609;-57
2022/07/09 01:45:54;;;;;;;11.73;4.55;;;14.40;99.90;;;;;;5113520;28;20128;-56
2022/07/09 01:48:19;;;;;;;16.63;5.75;;;14.30;99.90;;;;;;5113165;27;20411;-56
2022/07/09 01:50:45;;;;;;;19.45;5.57;;;14.40;99.90;;;;;;5113610;28;20020;-58
2022/07/09 01:53:11;;;;;;;17.23;6.03;;;14.40;99.90;;;;;;5113324;28;20590;-57
2022/07/09 01:55:37;;;;;;;14.13;5.10;;;14.40;99.90;;;;;;5113107;28;20023;-57
2022/07/09 01:58:02;;;;;;;22.55;6.28;;;14.50;99.90;;;;;;5113258;28;20036;-57
2022/07/09 02:00:29;;;;;;;11.10;4.93;;;14.50;99.90;;;;;;5113021;28;20077;-57
2022/07/09 02:02:55;;;;;;;14.40;6.47;;;14.40;99.90;;;;;;5112996;28;20071;-57
2022/07/09 02:05:21;;;;;;;14.23;5.83;;;14.40;99.90;;;;;;5113185;28;20102;-57
2022/07/09 02:07:48;;;;;;;21.10;7.10;;;14.40;99.90;;;;;;5113057;28;20032;-57
2022/07/09 02:10:13;;;;;;;14.90;5.10;;;14.30;99.90;;;;;;5112705;28;20035;-56
2022/07/09 02:12:40;;;;;;;14.10;5.10;;;14.20;99.90;;;;;;5113063;28;20467;-57
2022/07/09 02:15:07;;;;;;;16.97;5.07;;;14.20;99.90;;;;;;5112942;28;20023;-57
2022/07/09 02:17:34;;;;;;;22.75;6.68;;;14.20;99.90;;;;;;5113058;28;20293;-57
2022/07/09 02:20:00;;;;;;;14.10;6.53;;;14.20;99.90;;;;;;5112619;28;20034;-57
2022/07/09 02:22:25;;;;;;;11.63;5.53;;;14.10;99.90;;;;;;5112813;27;20028;-57
2022/07/09 02:24:51;;;;;;;13.23;4.80;;;14.20;99.90;;;;;;5112692;28;20597;-57
2022/07/09 02:27:17;;;;;;;11.25;5.47;;;14.20;99.90;;;;;;5112641;28;20023;-56
2022/07/09 02:29:43;;;;;;;9.60;5.07;;;14.20;99.90;;;;;;5112518;28;20026;-56
2022/07/09 02:32:11;;;;;;;14.38;6.00;;;14.20;99.90;;;;;;5112907;28;20030;-56
2022/07/09 02:34:38;;;;;;;12.38;5.07;;;14.10;99.90;;;;;;5112426;28;20032;-56
2022/07/09 02:37:07;;;;;;;12.65;4.70;;;14.20;99.90;;;;;;5112426;28;20024;-57
2022/07/09 02:39:33;;;;;;;13.25;4.80;;;14.10;99.90;;;;;;5112402;28;20089;-57
2022/07/09 02:41:59;;;;;;;14.15;5.55;;;14.10;99.90;;;;;;5112527;28;20023;-57
2022/07/09 02:44:25;;;;;;;8.63;4.93;;;14.10;99.90;;;;;;5112271;28;20077;-57
2022/07/09 02:46:50;;;;;;;16.15;6.45;;;14.10;99.90;;;;;;5112369;28;20023;-57
2022/07/09 02:49:16;;;;;;;14.38;5.70;;;14.10;99.90;;;;;;5110778;28;20059;-57
2022/07/09 02:51:42;;;;;;;12.25;5.65;;;14.10;99.90;;;;;;5112253;28;20016;-57
2022/07/09 02:54:08;;;;;;;20.45;6.40;;;14.00;99.90;;;;;;5112155;27;20144;-56
2022/07/09 02:56:34;;;;;;;19.20;6.13;;;13.90;99.90;;;;;;5111947;28;20031;-56
2022/07/09 02:59:00;;;;;;;15.50;5.45;;;13.80;99.90;;;;;;5111946;28;20053;-57
2022/07/09 03:01:26;;;;;;;24.75;7.10;;;13.80;99.90;;;;;;5112015;28;20016;-57
2022/07/09 03:03:52;;;;;;;15.70;6.78;;;13.90;99.90;;;;;;5111878;28;20444;-58
2022/07/09 03:06:18;;;;;;;16.98;6.07;;;13.70;99.90;;;;;;5111987;28;20037;-57
2022/07/09 03:08:43;;;;;;;11.88;5.43;;;13.80;99.90;;;;;;5111869;28;20023;-57
2022/07/09 03:11:09;;;;;;;13.00;5.78;;;13.90;99.90;;;;;;5111533;28;20483;-57
2022/07/09 03:13:36;;;;;;;21.80;6.32;;;14.00;99.90;;;;;;5111735;28;20024;-57
2022/07/09 03:16:03;;;;;;;13.77;5.57;;;14.00;99.90;;;;;;5111755;28;20732;-57
2022/07/09 03:18:29;;;;;;;16.75;5.60;;;13.90;99.90;;;;;;5111405;28;20070;-56
2022/07/09 03:20:55;;;;;;;14.73;5.95;;;13.90;99.90;;;;;;5111019;28;20063;-56
2022/07/09 03:23:21;;;;;;;10.73;6.00;;;14.00;99.90;;;;;;5111274;28;20023;-57
2022/07/09 03:25:47;;;;;;;13.43;6.28;;;14.00;99.90;;;;;;5111468;28;20023;-56
2022/07/09 03:28:13;;;;;;;11.95;5.53;;;14.00;99.90;;;;;;5111258;28;20114;-59
2022/07/09 03:30:38;;;;;;;10.38;5.20;;;14.00;99.90;;;;;;5111319;28;20031;-59
2022/07/09 03:33:04;;;;;;;16.48;5.30;;;14.10;99.90;;;;;;5111456;28;20035;-59
2022/07/09 03:35:30;;;;;;;13.43;5.45;;;14.20;99.90;;;;;;5111282;28;20058;-61
2022/07/09 03:37:55;;;;;;;10.43;5.13;;;14.20;99.90;;;;;;5111203;28;20520;-56
2022/07/09 03:40:21;;;;;;;17.52;6.45;;;14.20;99.90;;;;;;5111099;28;20030;-57
2022/07/09 03:42:47;;;;;;;16.35;7.38;;;14.10;99.90;;;;;;5111041;28;20155;-56
2022/07/09 03:45:13;;;;;;;14.90;6.00;;;13.90;99.90;;;;;;5110788;28;20016;-56
2022/07/09 03:47:38;;;;;;;15.38;6.63;;;13.80;99.90;;;;;;5110935;28;20043;-56
2022/07/09 03:50:04;;;;;;;21.10;8.32;;;13.70;99.90;;;;;;5110931;28;20084;-56
2022/07/09 03:52:30;;;;;;;15.70;7.30;;;13.70;99.90;;;;;;5111083;28;20134;-56
2022/07/09 03:54:56;;;;;;;19.73;7.57;;;13.80;99.90;;;;;;5110931;28;20676;-56
2022/07/09 03:57:21;;;;;;;11.73;6.78;;;13.70;99.90;;;;;;5110534;28;20039;-56
2022/07/09 03:59:47;;;;;;;18.52;7.85;;;13.80;99.90;;;;;;5110858;28;20122;-56
2022/07/09 04:02:13;;;;;;;14.82;7.60;;;13.70;99.90;;;;;;5111004;28;20024;-57
2022/07/09 04:04:38;;;;;;;17.00;6.93;;;13.80;99.90;;;;;;5110720;28;20028;-56
2022/07/09 04:07:04;;;;;;;20.55;7.70;;;13.90;99.90;;;;;;5109183;28;20024;-56
2022/07/09 04:09:30;;;;;;;14.43;7.68;;;13.80;99.90;;;;;;5110608;28;20068;-56
2022/07/09 04:11:56;;;;;;;13.25;6.90;;;13.70;99.90;;;;;;5110562;28;20035;-57
2022/07/09 04:14:21;;;;;;;17.52;7.22;;;13.60;99.90;;;;;;5110650;28;20031;-57
2022/07/09 04:16:47;;;;;;;12.52;7.47;;;13.60;99.90;;;;;;5110755;28;20478;-56
2022/07/09 04:19:13;;;;;;;24.13;9.10;;;13.40;99.90;;;;;;5110486;28;20399;-57
2022/07/09 04:21:39;;;;;;;14.10;8.45;;;13.30;99.90;;;;;;5110428;28;20024;-56
2022/07/09 04:24:05;;;;;;;17.70;7.50;;;13.40;99.90;;;;;;5110488;28;20027;-56
2022/07/09 04:26:30;;;;;;;18.58;7.72;;;13.30;99.90;;;;;;5110365;28;20016;-56
2022/07/09 04:28:56;;;;;;;17.77;7.00;;;13.40;99.90;;;;;;5110395;28;20024;-56
2022/07/09 04:31:22;;;;;;;17.45;7.78;;;13.40;99.90;;;;;;5110314;28;20020;-56
2022/07/09 04:33:49;;;;;;;20.00;9.13;;;13.40;99.90;;;;;;5110096;28;20049;-56
2022/07/09 04:36:14;;;;;;;26.73;11.63;;;13.30;99.90;;;;;;5110349;28;20039;-56
2022/07/09 04:38:40;;;;;;;19.95;10.38;;;13.30;99.90;;;;;;5110057;28;20595;-56
2022/07/09 04:41:06;;;;;;;15.45;9.70;;;13.40;99.90;;;;;;5110012;28;20023;-57
2022/07/09 04:43:32;;;;;;;18.48;9.65;;;13.50;99.90;;;;;;5110175;28;20028;-56
2022/07/09 04:45:58;;;;;;;16.73;9.10;;;13.60;99.90;;;;;;5110168;28;20020;-56
2022/07/09 04:48:24;;;;;;;20.48;10.13;;;13.60;99.90;;;;;;5109895;28;20060;-57
2022/07/09 04:50:50;;;;;;;18.08;7.85;;;13.60;99.90;;;;;;5110101;28;20027;-56
2022/07/09 04:53:16;;;;;;;17.75;7.25;;;13.60;99.90;;;;;;5110122;28;20028;-57
2022/07/09 04:55:42;;;;;;;15.88;6.78;;;13.70;99.90;;;;;;5110122;28;20039;-56
2022/07/09 04:58:08;;;;;;;19.30;8.10;;;13.60;99.90;;;;;;5108603;28;20498;-56
2022/07/09 05:00:34;;;;;;;18.77;7.38;;;13.70;99.90;;;;;;5110301;28;20024;-56
2022/07/09 05:03:00;;;;;;;16.90;7.45;;;13.80;99.90;;;;;;5110024;28;20379;-56
2022/07/09 05:05:26;;;;;;;17.52;6.78;;;13.90;99.90;;;;;;5109996;28;20051;-57
2022/07/09 05:07:52;;;;;;;15.60;8.15;;;13.90;99.90;;;;;;5109937;28;20420;-56
2022/07/09 05:10:18;;;;;;;13.25;7.60;;;14.10;99.90;;;;;;5109878;28;20027;-57
2022/07/09 05:12:44;;;;;;;16.90;7.95;;;14.20;99.90;;;;;;5109814;28;20030;-57
2022/07/09 05:15:10;;;;;;;16.95;7.50;;;14.10;99.90;;;;;;5109983;28;20028;-57
2022/07/09 05:17:37;;;;;;;14.80;8.13;;;14.10;99.90;;;;;;5109932;28;20051;-56
2022/07/09 05:20:07;;;;;;;14.90;8.27;;;14.10;99.90;;;;;;5109902;28;20027;-56
2022/07/09 05:22:35;;;;;;;18.70;8.43;;;14.30;99.90;;;;;;5109536;28;20084;-57
2022/07/09 05:25:01;;;;;;;11.82;8.00;;;14.30;99.90;;;;;;5109949;28;20019;-57
2022/07/09 05:27:28;;;;;;;16.45;7.50;;;14.40;99.90;;;;;;5109923;28;20477;-56
2022/07/09 05:29:53;;;;;;;15.95;8.07;;;14.40;99.90;;;;;;5108579;28;20499;-57
2022/07/09 05:32:19;;;;;;;18.80;9.10;;;14.40;99.90;;;;;;5109807;28;20035;-56
2022/07/09 05:34:45;;;;;;;16.67;8.23;;;14.40;99.90;;;;;;5109556;28;20431;-57
2022/07/09 05:37:10;;;;;;;15.73;7.75;;;14.50;99.90;;;;;;5109459;28;20546;-56
2022/07/09 05:39:36;;;;;;;17.42;8.35;;;14.60;99.90;;;;;;5109767;28;20035;-56
2022/07/09 05:42:02;;;;;;;13.75;8.40;;;14.70;99.90;;;;;;5109759;28;20027;-57
2022/07/09 05:44:28;;;;;;;19.17;9.02;;;14.60;99.90;;;;;;5110360;28;20478;-56
2022/07/09 05:46:54;;;;;;;18.83;9.50;;;14.70;99.90;;;;;;5113687;28;20157;-57
2022/07/09 05:49:19;;;;;;;18.08;8.50;;;14.70;99.90;;;;;;5113351;28;20032;-56
2022/07/09 05:51:45;;;;;;;17.17;8.38;;;14.80;99.90;;;;;;5113152;28;20030;-56
2022/07/09 05:54:11;;;;;;;13.93;7.57;;;14.70;99.90;;;;;;5113480;28;20122;-56
2022/07/09 05:56:37;;;;;;;19.00;8.68;;;14.70;99.90;;;;;;5113240;28;20390;-56
2022/07/09 05:59:03;;;;;;;20.40;9.07;;;14.80;99.90;;;;;;5112898;28;20035;-57
2022/07/09 06:01:29;;;;;;;20.47;9.00;;;14.70;99.90;;;;;;5113476;28;20027;-56
2022/07/09 06:03:55;;;;;;;22.80;9.52;;;14.90;99.90;;;;;;5113165;28;20671;-57
2022/07/09 06:06:21;;;;;;;25.42;11.23;;;15.00;99.90;;;;;;5112893;28;20474;-56
2022/07/09 06:08:47;;;;;;;18.45;9.65;;;15.10;99.90;;;;;;5113005;28;20026;-57
2022/07/09 06:11:13;;;;;;;16.80;8.95;;;15.10;99.90;;;;;;5113009;28;20110;-57
2022/07/09 06:13:39;;;;;;;20.67;9.15;;;15.20;99.90;;;;;;5112971;27;20035;-56
2022/07/09 06:16:06;;;;;;;12.88;8.70;;;15.30;99.90;;;;;;5112909;28;20032;-56
2022/07/09 06:18:31;;;;;;;16.75;7.47;;;15.30;99.90;;;;;;5112644;28;20046;-56
2022/07/09 06:20:57;;;;;;;22.52;8.57;;;15.30;99.90;;;;;;5112743;28;20015;-56
2022/07/09 06:23:23;;;;;;;16.58;7.47;;;15.50;99.90;;;;;;5112636;27;20279;-56
2022/07/09 06:25:49;;;;;;;23.98;8.27;;;15.50;99.90;;;;;;5112483;28;20423;-56
2022/07/09 06:28:15;;;;;;;11.77;7.60;;;15.70;99.90;;;;;;5112438;28;20038;-56
2022/07/09 06:30:40;;;;;;;13.77;7.63;;;15.70;99.90;;;;;;5112450;28;20393;-56
2022/07/09 06:33:06;;;;;;;19.60;6.95;;;15.90;99.90;;;;;;5112397;28;20080;-56
2022/07/09 06:35:32;;;;;;;17.70;6.95;;;16.00;99.90;;;;;;5112241;28;20062;-57
2022/07/09 06:37:58;;;;;;;13.65;6.70;;;16.00;99.90;;;;;;5112201;28;20023;-56
2022/07/09 06:40:24;;;;;;;10.90;6.55;;;16.10;99.90;;;;;;5112419;28;20024;-56
2022/07/09 06:42:49;;;;;;;10.73;6.25;;;16.10;99.90;;;;;;5112139;28;20032;-56
2022/07/09 06:45:15;;;;;;;15.48;6.28;;;16.30;99.90;;;;;;5112234;28;20024;-56
2022/07/09 06:47:41;;;;;;;14.05;6.75;;;16.30;99.90;;;;;;5112147;28;20047;-57
2022/07/09 06:50:07;;;;;;;16.60;6.22;;;16.40;99.90;;;;;;5112041;28;20023;-57
2022/07/09 06:52:32;;;;;;;11.98;5.60;;;16.40;99.90;;;;;;5112208;28;20020;-56
2022/07/09 06:54:58;;;;;;;14.80;6.43;;;16.40;99.90;;;;;;5112285;28;20077;-56
2022/07/09 06:57:24;;;;;;;9.35;5.95;;;16.60;99.90;;;;;;5111652;28;20044;-57
2022/07/09 06:59:49;;;;;;;14.35;6.55;;;16.50;99.90;;;;;;5112000;28;20107;-56
2022/07/09 07:02:16;;;;;;;12.20;5.15;;;16.60;99.90;;;;;;5111910;28;20046;-57
2022/07/09 07:04:42;;;;;;;20.63;6.35;;;16.70;99.90;;;;;;5111775;28;20027;-57
2022/07/09 07:07:08;;;;;;;15.95;6.70;;;16.80;99.90;;;;;;5111783;28;20402;-56
2022/07/09 07:09:33;;;;;;;12.82;5.78;;;16.90;99.90;;;;;;5111592;28;20027;-56
2022/07/09 07:11:59;;;;;;;10.15;5.10;;;16.90;99.90;;;;;;5111864;28;20031;-57
2022/07/09 07:14:25;;;;;;;10.32;5.30;;;16.90;99.90;;;;;;5111469;27;20419;-56
2022/07/09 07:16:54;;;;;;;9.82;5.30;;;16.70;99.90;;;;;;5111461;28;20478;-55
2022/07/09 07:19:21;;;;;;;20.98;6.43;;;16.70;99.90;;;;;;5111822;28;20031;-56
2022/07/09 07:21:47;;;;;;;12.02;5.50;;;16.70;99.90;;;;;;5111602;28;20500;-56
2022/07/09 07:24:13;;;;;;;12.67;5.87;;;16.80;99.90;;;;;;5111428;28;20035;-56
2022/07/09 07:26:39;;;;;;;10.75;6.00;;;16.80;99.90;;;;;;5109943;28;20269;-56
2022/07/09 07:29:05;;;;;;;15.20;5.93;;;16.80;99.90;;;;;;5111301;28;20024;-56
2022/07/09 07:31:31;;;;;;;13.65;6.10;;;16.90;99.90;;;;;;5111296;28;20032;-56
2022/07/09 07:33:57;;;;;;;15.18;5.78;;;16.90;99.90;;;;;;5111469;28;20024;-57
2022/07/09 07:36:23;;;;;;;11.37;5.30;;;17.00;99.90;;;;;;5111386;28;20072;-57
2022/07/09 07:38:49;;;;;;;9.45;5.20;;;17.20;99.90;;;;;;5111259;28;20036;-57
2022/07/09 07:41:18;;;;;;;14.38;5.38;;;17.40;99.90;;;;;;5111240;28;20034;-57
2022/07/09 07:43:44;;;;;;;12.82;4.57;;;17.60;99.90;;;;;;5111027;28;20019;-56
2022/07/09 07:46:10;;;;;;;7.53;5.00;;;17.80;99.90;;;;;;5111127;28;20062;-57
2022/07/09 07:48:37;;;;;;;15.90;5.28;;;17.90;99.90;;;;;;5110737;28;20075;-56
2022/07/09 07:51:04;;;;;;;8.90;5.20;;;17.60;99.90;;;;;;5110921;28;20036;-57
2022/07/09 07:53:33;;;;;;;18.63;5.82;;;17.40;99.90;;;;;;5111091;28;20024;-56
2022/07/09 07:56:00;;;;;;;13.40;4.47;;;17.50;99.90;;;;;;5111008;27;20039;-56
2022/07/09 07:58:26;;;;;;;9.77;4.05;;;17.60;99.90;;;;;;5110735;28;20136;-56
2022/07/09 08:00:52;;;;;;;6.68;3.85;;;17.80;99.90;;;;;;5110800;28;20140;-57
2022/07/09 08:03:17;;;;;;;9.40;3.88;;;17.70;99.90;;;;;;5110883;28;20088;-57
2022/07/09 08:05:43;;;;;;;12.63;4.32;;;17.50;99.90;;;;;;5109479;28;20034;-56
2022/07/09 08:08:09;;;;;;;8.63;3.55;;;17.60;99.90;;;;;;5110430;28;20110;-57
2022/07/09 08:10:34;;;;;;;10.45;3.45;;;17.80;99.90;;;;;;5110698;28;20437;-56
2022/07/09 08:13:00;;;;;;;8.88;4.38;;;17.80;99.90;;;;;;5110594;28;20032;-56
2022/07/09 08:15:26;;;;;;;7.70;3.63;;;17.90;99.90;;;;;;5110524;28;20069;-56
2022/07/09 08:17:53;;;;;;;10.70;4.03;;;18.00;99.90;;;;;;5110409;28;20028;-56
2022/07/09 08:20:19;;;;;;;10.25;4.05;;;18.00;99.90;;;;;;5110766;28;20027;-57
2022/07/09 08:22:45;;;;;;;10.20;4.57;;;18.00;99.90;;;;;;5110461;28;20035;-56
2022/07/09 08:25:11;;;;;;;9.68;4.07;;;17.70;99.90;;;;;;5110598;28;20505;-56
2022/07/09 08:27:37;;;;;;;9.82;4.75;;;18.10;99.90;;;;;;5110428;28;20012;-56
2022/07/09 08:30:03;;;;;;;18.00;5.13;;;18.10;99.90;;;;;;5110209;28;20080;-56
2022/07/09 08:32:29;;;;;;;7.60;3.43;;;18.20;99.90;;;;;;5110539;28;20024;-56
2022/07/09 08:34:55;;;;;;;8.23;3.90;;;18.10;99.90;;;;;;5109460;28;20122;-56
2022/07/09 08:37:20;;;;;;;6.28;3.67;;;18.10;99.90;;;;;;5110536;28;20073;-55
2022/07/09 08:39:46;;;;;;;8.32;3.80;;;18.00;99.90;;;;;;5110471;28;20305;-57
2022/07/09 08:42:13;;;;;;;8.13;3.13;;;18.30;99.90;;;;;;5110341;28;20032;-57
2022/07/09 08:44:42;;;;;;;7.80;3.65;;;18.30;99.90;;;;;;5109004;28;20030;-57
2022/07/09 08:47:10;;;;;;;8.30;3.05;;;18.40;99.90;;;;;;5110455;28;20036;-57
2022/07/09 08:49:37;;;;;;;9.60;3.17;;;18.60;99.90;;;;;;5110380;28;20027;-56
2022/07/09 08:52:03;;;;;;;9.77;3.35;;;18.70;99.90;;;;;;5110370;28;20035;-56
2022/07/09 08:54:31;;;;;;;9.00;3.63;;;18.90;99.90;;;;;;5110618;28;20039;-56
2022/07/09 08:56:56;;;;;;;7.07;2.78;;;19.10;99.90;;;;;;5110005;28;20119;-57
2022/07/09 08:59:22;;;;;;;8.98;2.95;;;19.30;99.90;;;;;;5110096;28;20099;-56
2022/07/09 09:01:48;;;;;;;7.25;3.05;;;19.40;99.90;;;;;;5110640;28;20028;-56
2022/07/09 09:04:14;;;;;;;6.32;3.20;;;19.30;99.90;;;;;;5110447;28;20083;-56
2022/07/09 09:06:39;;;;;;;6.43;3.05;;;19.50;99.90;;;;;;5110318;28;20012;-57
2022/07/09 09:09:08;;;;;;;4.10;2.08;;;19.60;99.90;;;;;;5109893;28;20065;-56
2022/07/09 09:11:36;;;;;;;13.13;2.30;;;19.60;99.90;;;;;;5090103;28;20024;-56
2022/07/09 09:14:03;;;;;;;8.25;2.22;;;19.60;99.90;;;;;;5105922;28;20043;-56
2022/07/09 09:16:28;;;;;;;4.75;2.30;;;19.70;99.90;;;;;;5100029;28;20111;-56
2022/07/09 09:18:59;;;;;;;8.27;1.67;;;19.60;99.90;;;;;;5098219;28;20161;-57
2022/07/09 09:21:26;;;;;;;5.65;1.58;;;19.60;99.90;;;;;;5102744;28;20042;-56
2022/07/09 09:23:54;;;;;;;5.45;1.67;;;19.60;99.90;;;;;;5101015;28;20016;-56
2022/07/09 09:26:22;;;;;;;6.53;2.05;;;19.90;99.90;;;;;;5092187;28;20031;-56
2022/07/09 09:28:54;;;;;;;7.07;1.65;;;19.90;99.90;;;;;;5092973;28;20038;-56
2022/07/09 09:31:19;;;;;;;3.30;1.60;;;19.90;99.90;;;;;;5096091;28;20015;-56
2022/07/09 09:33:45;;;;;;;4.65;1.58;;;19.90;99.90;;;;;;5104323;28;20030;-56
2022/07/09 09:36:11;;;;;;;4.00;1.33;;;19.90;99.90;;;;;;5102734;28;20020;-56
2022/07/09 09:38:37;;;;;;;5.70;1.60;;;19.90;99.90;;;;;;5104770;28;20108;-57
2022/07/09 09:41:02;;;;;;;3.55;1.63;;;20.20;99.90;;;;;;5101764;28;20019;-56
2022/07/09 09:43:31;;;;;;;6.32;1.80;;;20.00;99.90;;;;;;5096161;28;20164;-56
2022/07/09 09:46:02;;;;;;;5.57;1.48;;;20.10;99.90;;;;;;5104649;28;20042;-56
2022/07/09 09:48:29;;;;;;;5.40;1.70;;;20.30;99.90;;;;;;5107115;28;20044;-55
2022/07/09 09:50:55;;;;;;;;;;;20.50;99.90;;;;;;5102953;28;20517;-56
2022/07/09 09:53:23;;;;;;;7.03;2.00;;;20.70;99.90;;;;;;5103711;28;19915;-55
2022/07/09 09:55:50;;;;;;;3.38;1.65;;;20.80;99.90;;;;;;5107960;28;20028;-56
2022/07/09 09:58:16;;;;;;;6.27;1.93;;;21.10;99.70;;;;;;5105044;28;20145;-58
2022/07/09 10:00:42;;;;;;;2.10;1.08;;;21.30;99.90;;;;;;5092971;28;20721;-56
2022/07/09 10:03:11;;;;;;;3.40;1.20;;;21.70;98.30;;;;;;5110162;28;20103;-56
2022/07/09 10:05:37;;;;;;;3.92;1.50;;;21.70;94.70;;;;;;5110592;28;20024;-56
2022/07/09 10:08:03;;;;;;;5.80;1.20;;;21.60;92.80;;;;;;5100597;28;20032;-56
2022/07/09 10:10:28;;;;;;;4.97;1.30;;;21.50;93.00;;;;;;5100382;28;20047;-56
2022/07/09 10:12:54;;;;;;;5.45;1.55;;;21.40;93.50;;;;;;5101874;28;20069;-56
2022/07/09 10:15:26;;;;;;;4.38;1.42;;;21.30;94.40;;;;;;5103448;28;20099;-56
2022/07/09 10:17:53;;;;;;;5.78;1.83;;;21.20;96.00;;;;;;5102863;28;20023;-56
2022/07/09 10:20:33;;;;;;;5.07;1.50;;;21.20;97.10;;;;;;5102248;28;20024;-56
2022/07/09 10:22:59;;;;;;;8.55;3.05;;;21.20;95.20;;;;;;5103956;28;20588;-56
2022/07/09 10:25:30;;;;;;;5.80;1.80;;;21.20;96.00;;;;;;5103685;28;20062;-56
2022/07/09 10:27:55;;;;;;;3.97;1.40;;;21.00;97.00;;;;;;5100710;28;20360;-57
2022/07/09 10:30:27;;;;;;;6.75;2.70;;;20.80;98.40;;;;;;5095173;28;20489;-56
2022/07/09 10:33:13;;;;;;;5.68;1.80;;;20.80;99.10;;;;;;5101079;28;20422;-56
2022/07/09 10:35:51;;;;;;;4.15;1.63;;;20.90;99.70;;;;;;5094940;28;20032;-62
2022/07/09 10:38:17;;;;;;;3.65;1.50;;;21.50;99.90;;;;;;5094524;28;20491;-63
2022/07/09 10:40:55;;;;;;;7.80;2.05;;;21.80;96.80;;;;;;5094453;28;20058;-61
2022/07/09 10:43:38;;;;;;;6.32;2.63;;;21.90;94.70;;;;;;5097833;28;20506;-62
2022/07/09 10:46:12;;;;;;;2.17;1.00;;;22.20;95.50;;;;;;5100589;28;20024;-61
2022/07/09 10:48:38;;;;;;;3.85;1.20;;;21.90;84.20;;;;;;5099686;28;20044;-61
2022/07/09 10:51:04;;;;;;;2.97;1.40;;;22.20;91.80;;;;;;5100648;28;20019;-60
2022/07/09 10:53:30;;;;;;;9.73;2.35;;;21.90;87.20;;;;;;5101433;28;20026;-61
2022/07/09 10:55:56;;;;;;;3.08;1.20;;;22.20;88.50;;;;;;5101610;28;20051;-61
2022/07/09 10:58:25;;;;;;;4.18;1.83;;;22.20;89.90;;;;;;5101376;28;20445;-61
2022/07/09 11:00:59;;;;;;;3.42;1.75;;;22.00;90.20;;;;;;5105819;28;20479;-61
2022/07/09 11:03:29;;;;;;;3.40;1.42;;;22.10;86.70;;;;;;5111841;28;20139;-62
2022/07/09 11:05:56;;;;;;;3.88;1.13;;;22.30;86.70;;;;;;5111928;28;20051;-61
2022/07/09 11:08:22;;;;;;;3.85;1.20;;;22.20;81.40;;;;;;5111670;28;20039;-56
2022/07/09 11:10:48;;;;;;;4.15;1.33;;;22.30;85.40;;;;;;5111866;28;20032;-56
2022/07/09 11:13:14;;;;;;;4.00;1.10;;;22.60;79.10;;;;;;5104165;28;20027;-56
2022/07/09 11:15:40;;;;;;;2.42;1.00;;;22.70;75.30;;;;;;5100844;28;20077;-56
2022/07/09 11:18:08;;;;;;;3.87;1.10;;;22.90;79.90;;;;;;5099718;28;20691;-56
2022/07/09 11:20:39;;;;;;;3.50;1.02;;;23.30;78.90;;;;;;5099295;28;20765;-56
2022/07/09 11:23:06;;;;;;;3.00;1.23;;;23.30;78.70;;;;;;5110392;28;20110;-55
2022/07/09 11:25:32;;;;;;;5.70;2.00;;;23.30;80.80;;;;;;5109545;28;20062;-56
2022/07/09 11:27:59;;;;;;;2.58;1.40;;;23.50;81.00;;;;;;5111375;27;20474;-56
2022/07/09 11:30:27;;;;;;;7.45;1.40;;;23.60;79.50;;;;;;5111028;28;20023;-56
2022/07/09 11:32:53;;;;;;;4.53;1.63;;;23.70;85.00;;;;;;5109779;28;20107;-56
2022/07/09 11:35:34;;;;;;;7.80;1.67;;;24.00;78.70;;;;;;5109695;28;20069;-56
2022/07/09 11:38:06;;;;;;;9.27;1.73;;;24.20;78.10;;;;;;5110059;28;20051;-56
2022/07/09 11:40:32;;;;;;;3.70;1.52;;;24.30;75.80;;;;;;5108757;28;20804;-55
2022/07/09 11:42:58;;;;;;;6.30;1.60;;;24.50;71.80;;;;;;5108132;28;20149;-56
2022/07/09 11:45:28;;;;;;;3.55;1.23;;;24.30;68.20;;;;;;5108877;28;20479;-56
2022/07/09 11:48:04;;;;;;;3.05;1.23;;;24.30;68.70;;;;;;5109334;28;20048;-56
2022/07/09 11:50:30;;;;;;;3.05;1.02;;;23.90;65.60;;;;;;5109774;28;20023;-55
2022/07/09 11:52:56;;;;;;;2.95;1.17;;;23.80;69.20;;;;;;5109843;28;20024;-56
2022/07/09 11:55:30;;;;;;;5.47;1.80;;;23.80;69.10;;;;;;5110037;28;20050;-56
2022/07/09 11:57:58;;;;;;;3.78;1.35;;;24.00;72.20;;;;;;5110720;28;20043;-56
2022/07/09 12:00:27;;;;;;;2.15;1.30;;;24.10;71.80;;;;;;5110709;28;20028;-56
2022/07/09 12:02:54;;;;;;;4.97;2.05;;;24.10;73.00;;;;;;5110368;28;20019;-56
2022/07/09 12:05:30;;;;;;;4.07;1.55;;;24.30;76.20;;;;;;5110570;28;20054;-55
2022/07/09 12:08:01;;;;;;;5.50;1.83;;;24.70;80.00;;;;;;5110526;28;20020;-55
2022/07/09 12:10:32;;;;;;;9.02;1.65;;;24.70;69.30;;;;;;5110552;28;20027;-56
2022/07/09 12:12:59;;;;;;;5.72;1.40;;;24.70;68.40;;;;;;5110334;28;20107;-56
2022/07/09 12:15:26;;;;;;;2.70;1.48;;;24.60;62.40;;;;;;5110359;28;20032;-56
2022/07/09 12:17:59;;;;;;;2.35;1.17;;;24.70;62.70;;;;;;5110213;28;20120;-56
2022/07/09 12:20:27;;;;;;;3.70;1.77;;;24.80;63.80;;;;;;5110288;28;20092;-56
2022/07/09 12:22:53;;;;;;;1.35;1.00;;;24.60;61.90;;;;;;5110293;28;20079;-56
2022/07/09 12:25:19;;;;;;;3.53;1.15;;;24.30;61.30;;;;;;5110339;28;20134;-55
2022/07/09 12:27:46;;;;;;;3.25;1.27;;;24.20;65.60;;;;;;5110514;28;20036;-56
2022/07/09 12:30:12;;;;;;;4.13;1.77;;;24.50;66.20;;;;;;5108928;28;20031;-56
2022/07/09 12:32:39;;;;;;;3.60;1.33;;;24.50;64.80;;;;;;5110255;28;20112;-55
2022/07/09 12:35:05;;;;;;;3.35;1.23;;;24.50;67.50;;;;;;5110303;28;20193;-56
2022/07/09 12:37:31;;;;;;;5.28;1.75;;;24.60;65.00;;;;;;5110203;28;20043;-55